createdAt,value
2022-08-07T00:05:03.910Z,29.77
2022-08-07T00:07:40.627Z,34.58
2022-08-07T00:10:26.868Z,34.30
2022-08-07T00:13:00.153Z,29.98
2022-08-07T00:15:37.644Z,29.63
2022-08-07T00:18:18.909Z,33.97
2022-08-07T00:20:49.728Z,34.53
2022-08-07T00:23:17.847Z,31.40
2022-08-07T00:25:52.065Z,31.77
2022-08-07T00:28:33.821Z,31.90
2022-08-07T00:31:06.121Z,33.08
2022-08-07T00:33:41.140Z,32.88
2022-08-07T00:36:11.284Z,34.72
2022-08-07T00:38:39.719Z,26.95
2022-08-07T00:41:09.986Z,37.25
2022-08-07T00:44:00.446Z,32.83
2022-08-07T00:46:32.950Z,28.85
2022-08-07T00:49:02.346Z,29.55
2022-08-07T00:51:57.616Z,31.00
2022-08-07T00:54:20.123Z,30.77
2022-08-07T00:56:49.921Z,33.08
2022-08-07T00:59:17.936Z,33.47
2022-08-07T01:01:48.414Z,34.93
2022-08-07T01:04:24.546Z,34.30
2022-08-07T01:06:54.290Z,34.40
2022-08-07T01:10:04.991Z,31.63
2022-08-07T01:12:29.846Z,32.90
2022-08-07T01:15:01.562Z,29.63
2022-08-07T01:17:33.051Z,38.25
2022-08-07T01:20:05.641Z,34.75
2022-08-07T01:22:36.657Z,35.75
2022-08-07T01:25:54.695Z,32.95
2022-08-07T01:27:53.599Z,31.30
2022-08-07T01:30:27.252Z,34.10
2022-08-07T01:32:55.508Z,34.35
2022-08-07T01:35:26.598Z,36.35
2022-08-07T01:38:25.178Z,31.67
2022-08-07T01:40:56.961Z,32.20
2022-08-07T01:43:27.521Z,35.95
2022-08-07T01:46:08.075Z,40.08
2022-08-07T01:48:40.990Z,34.55
2022-08-07T01:52:00.923Z,33.20
2022-08-07T01:54:12.577Z,38.70
2022-08-07T01:56:53.210Z,36.38
2022-08-07T01:59:31.179Z,32.80
2022-08-07T02:02:04.427Z,36.05
2022-08-07T02:04:56.322Z,35.63
2022-08-07T02:07:36.135Z,36.90
2022-08-07T02:10:26.093Z,32.45
2022-08-07T02:12:59.520Z,39.33
2022-08-07T02:15:30.174Z,34.85
2022-08-07T02:18:03.791Z,35.40
2022-08-07T02:20:33.515Z,33.63
2022-08-07T02:23:06.163Z,34.97
2022-08-07T02:28:28.609Z,36.85
2022-08-07T02:30:57.750Z,34.22
2022-08-07T02:33:42.009Z,37.38
2022-08-07T02:39:02.757Z,36.20
2022-08-07T02:41:47.331Z,39.03
2022-08-07T02:44:26.875Z,41.20
2022-08-07T02:47:03.773Z,43.03
2022-08-07T02:49:56.431Z,39.20
2022-08-07T02:52:31.228Z,40.40
2022-08-07T02:55:04.838Z,38.92
2022-08-07T02:57:57.149Z,36.92
2022-08-07T03:00:28.098Z,38.03
2022-08-07T03:03:00.052Z,38.72
2022-08-07T03:05:35.905Z,35.78
2022-08-07T03:08:09.460Z,37.35
2022-08-07T03:10:41.071Z,39.35
2022-08-07T03:13:19.634Z,39.03
2022-08-07T03:15:56.490Z,39.50
2022-08-07T03:18:34.808Z,38.60
2022-08-07T03:21:08.726Z,52.92
2022-08-07T03:24:17.944Z,42.33
2022-08-07T03:26:29.989Z,39.58
2022-08-07T03:31:42.867Z,39.50
2022-08-07T03:34:18.506Z,38.50
2022-08-07T03:36:52.889Z,43.22
2022-08-07T03:39:58.882Z,39.53
2022-08-07T03:42:11.350Z,40.10
2022-08-07T03:44:42.499Z,39.70
2022-08-07T03:47:15.581Z,52.38
2022-08-07T03:49:47.963Z,39.83
2022-08-07T03:52:26.105Z,40.92
2022-08-07T03:54:59.016Z,39.10
2022-08-07T03:58:33.428Z,38.90
2022-08-07T04:00:30.475Z,43.53
2022-08-07T04:03:04.012Z,42.53
2022-08-07T04:08:11.498Z,38.70
2022-08-07T04:10:42.205Z,45.70
2022-08-07T04:13:15.067Z,42.30
2022-08-07T04:15:45.687Z,42.97
2022-08-07T04:18:58.353Z,38.33
2022-08-07T04:21:07.278Z,37.72
2022-08-07T04:23:43.706Z,35.95
2022-08-07T04:26:23.850Z,36.25
2022-08-07T04:28:56.235Z,38.45
2022-08-07T04:31:38.852Z,43.60
2022-08-07T04:34:23.975Z,41.35
2022-08-07T04:36:55.920Z,38.42
2022-08-07T04:39:25.963Z,38.60
2022-08-07T04:41:54.053Z,42.05
2022-08-07T04:44:22.019Z,37.72
2022-08-07T04:47:04.221Z,40.15
2022-08-07T04:49:57.392Z,41.17
2022-08-07T04:52:36.873Z,35.00
2022-08-07T04:58:13.159Z,36.40
2022-08-07T04:58:38.826Z,40.92
2022-08-07T05:01:18.322Z,43.55
2022-08-07T05:04:06.743Z,39.72
2022-08-07T05:06:43.848Z,36.10
2022-08-07T05:09:43.034Z,35.55
2022-08-07T05:12:26.891Z,34.78
2022-08-07T05:17:50.970Z,34.75
2022-08-07T05:20:30.967Z,37.65
2022-08-07T05:23:04.354Z,34.28
2022-08-07T05:26:10.490Z,36.55
2022-08-07T05:28:26.806Z,36.13
2022-08-07T05:30:57.288Z,36.22
2022-08-07T05:33:27.804Z,37.17
2022-08-07T05:35:58.323Z,34.97
2022-08-07T05:38:59.451Z,36.05
2022-08-07T05:41:18.446Z,39.95
2022-08-07T05:44:08.613Z,39.28
2022-08-07T05:46:41.277Z,34.28
2022-08-07T05:49:12.642Z,34.78
2022-08-07T05:51:46.635Z,34.55
2022-08-07T05:54:30.167Z,34.25
2022-08-07T05:57:01.230Z,31.50
2022-08-07T05:59:39.075Z,35.55
2022-08-07T06:02:28.672Z,32.80
2022-08-07T06:05:03.680Z,31.50
2022-08-07T06:08:13.406Z,35.60
2022-08-07T06:10:24.174Z,35.03
2022-08-07T06:12:52.549Z,33.30
2022-08-07T06:15:20.887Z,34.65
2022-08-07T06:17:53.449Z,32.35
2022-08-07T06:20:25.635Z,31.80
2022-08-07T06:23:46.320Z,37.65
2022-08-07T06:25:57.858Z,33.42
2022-08-07T06:28:27.878Z,31.00
2022-08-07T06:30:58.235Z,35.45
2022-08-07T06:33:26.613Z,31.35
2022-08-07T06:36:13.025Z,28.40
2022-08-07T06:38:51.377Z,36.08
2022-08-07T06:42:02.156Z,32.97
2022-08-07T06:44:22.686Z,31.65
2022-08-07T06:46:53.522Z,33.92
2022-08-07T06:49:52.356Z,30.20
2022-08-07T06:52:31.325Z,26.70
2022-08-07T06:55:32.932Z,26.80
2022-08-07T06:58:00.031Z,28.55
2022-08-07T07:00:31.173Z,24.20
2022-08-07T07:03:01.190Z,29.00
2022-08-07T07:06:03.765Z,29.60
2022-08-07T07:08:28.288Z,25.67
2022-08-07T07:11:01.403Z,26.00
2022-08-07T07:13:58.264Z,28.33
2022-08-07T07:16:45.195Z,28.83
2022-08-07T07:19:55.311Z,28.25
2022-08-07T07:22:34.198Z,25.75
2022-08-07T07:25:14.054Z,28.35
2022-08-07T07:27:58.557Z,26.85
2022-08-07T07:30:38.543Z,26.55
2022-08-07T07:33:11.709Z,26.73
2022-08-07T07:35:50.639Z,23.13
2022-08-07T07:38:32.511Z,22.65
2022-08-07T07:41:05.087Z,19.50
2022-08-07T07:44:13.600Z,21.95
2022-08-07T07:46:40.606Z,24.25
2022-08-07T07:50:36.177Z,22.50
2022-08-07T07:52:12.738Z,25.38
2022-08-07T07:54:44.314Z,22.25
2022-08-07T07:57:29.110Z,19.58
2022-08-07T08:00:21.100Z,22.70
2022-08-07T08:03:06.198Z,24.20
2022-08-07T08:05:43.203Z,20.40
2022-08-07T08:08:34.603Z,19.90
2022-08-07T08:11:16.082Z,23.88
2022-08-07T08:13:53.262Z,25.90
2022-08-07T08:16:30.926Z,22.50
2022-08-07T08:19:17.416Z,21.25
2022-08-07T08:21:55.731Z,19.77
2022-08-07T08:24:45.830Z,20.88
2022-08-07T08:27:18.083Z,16.83
2022-08-07T08:29:54.469Z,20.70
2022-08-07T08:32:39.325Z,17.30
2022-08-07T08:35:10.662Z,20.85
2022-08-07T08:38:01.604Z,21.40
2022-08-07T08:40:32.186Z,17.08
2022-08-07T08:43:09.228Z,21.23
2022-08-07T08:45:59.013Z,16.58
2022-08-07T08:48:38.449Z,18.38
2022-08-07T08:51:26.095Z,16.35
2022-08-07T08:54:10.559Z,17.80
2022-08-07T08:56:47.184Z,17.77
2022-08-07T08:59:20.436Z,18.58
2022-08-07T09:02:00.505Z,11.32
2022-08-07T09:04:41.562Z,16.45
2022-08-07T09:07:24.448Z,14.77
2022-08-07T09:10:02.570Z,16.48
2022-08-07T09:12:43.082Z,14.45
2022-08-07T09:16:22.697Z,16.77
2022-08-07T09:18:53.225Z,13.98
2022-08-07T09:22:22.409Z,13.13
2022-08-07T09:27:38.318Z,17.08
2022-08-07T09:30:27.928Z,13.93
2022-08-07T09:33:16.772Z,16.38
2022-08-07T09:36:04.777Z,20.73
2022-08-07T09:38:50.104Z,15.20
2022-08-07T09:41:43.242Z,17.88
2022-08-07T09:44:32.966Z,15.52
2022-08-07T09:48:01.523Z,16.80
2022-08-07T09:50:26.512Z,16.80
2022-08-07T09:53:01.368Z,12.73
2022-08-07T09:56:03.786Z,13.95
2022-08-07T09:58:59.689Z,14.15
2022-08-07T10:01:51.222Z,14.13
2022-08-07T10:04:38.138Z,16.73
2022-08-07T10:07:24.370Z,14.70
2022-08-07T10:10:21.601Z,16.63
2022-08-07T10:13:29.635Z,12.95
2022-08-07T10:16:16.287Z,17.70
2022-08-07T10:19:11.220Z,13.63
2022-08-07T10:22:16.282Z,14.23
2022-08-07T10:24:51.166Z,13.63
2022-08-07T10:27:46.395Z,11.90
2022-08-07T10:30:19.448Z,13.07
2022-08-07T10:33:08.282Z,12.77
2022-08-07T10:36:05.622Z,14.68
2022-08-07T10:38:51.209Z,15.25
2022-08-07T10:41:53.130Z,15.33
2022-08-07T10:44:38.058Z,12.85
2022-08-07T10:47:27.061Z,14.45
2022-08-07T10:50:17.025Z,14.25
2022-08-07T10:52:55.673Z,14.70
2022-08-07T10:55:37.672Z,10.82
2022-08-07T10:58:18.073Z,14.50
2022-08-07T11:01:15.109Z,17.08
2022-08-07T11:04:05.387Z,18.00
2022-08-07T11:06:48.084Z,14.38
2022-08-07T11:10:07.747Z,13.90
2022-08-07T11:12:19.030Z,17.27
2022-08-07T11:15:09.691Z,18.27
2022-08-07T11:17:49.897Z,18.90
2022-08-07T11:20:31.253Z,12.23
2022-08-07T11:23:07.470Z,15.70
2022-08-07T11:25:47.953Z,12.18
2022-08-07T11:28:21.212Z,15.55
2022-08-07T11:30:59.776Z,14.57
2022-08-07T11:33:54.315Z,9.80
2022-08-07T11:36:38.316Z,13.30
2022-08-07T11:39:19.678Z,12.18
2022-08-07T11:42:02.092Z,15.98
2022-08-07T11:44:52.720Z,12.30
2022-08-07T11:47:38.863Z,14.90
2022-08-07T11:50:36.379Z,14.25
2022-08-07T11:53:28.652Z,11.63
2022-08-07T11:56:27.044Z,11.95
2022-08-07T12:00:08.330Z,11.63
2022-08-07T12:02:17.693Z,12.52
2022-08-07T12:05:15.032Z,10.00
2022-08-07T12:08:03.698Z,14.55
2022-08-07T12:10:41.882Z,9.82
2022-08-07T12:13:17.207Z,11.50
2022-08-07T12:16:06.355Z,19.05
2022-08-07T12:18:45.225Z,7.72
2022-08-07T12:22:36.240Z,9.68
2022-08-07T12:24:38.103Z,8.68
2022-08-07T12:27:16.681Z,12.77
2022-08-07T12:29:53.841Z,11.38
2022-08-07T12:32:31.122Z,11.43
2022-08-07T12:35:02.400Z,9.90
2022-08-07T12:38:09.333Z,9.80
2022-08-07T12:44:02.728Z,7.80
2022-08-07T12:46:32.161Z,10.30
2022-08-07T12:49:09.907Z,13.05
2022-08-07T12:51:51.372Z,11.90
2022-08-07T12:54:41.177Z,12.23
2022-08-07T12:57:10.922Z,11.98
2022-08-07T12:59:54.299Z,12.40
2022-08-07T13:02:42.284Z,12.82
2022-08-07T13:06:03.858Z,12.23
2022-08-07T13:08:27.770Z,8.43
2022-08-07T13:11:08.778Z,10.07
2022-08-07T13:13:57.423Z,14.98
2022-08-07T13:16:36.587Z,11.38
2022-08-07T13:19:21.989Z,15.00
2022-08-07T13:22:19.779Z,11.43
2022-08-07T13:25:00.550Z,12.18
2022-08-07T13:28:10.828Z,9.50
2022-08-07T13:30:41.171Z,10.90
2022-08-07T13:34:32.662Z,11.30
2022-08-07T13:38:55.999Z,12.35
2022-08-07T13:41:35.202Z,10.68
2022-08-07T13:44:05.240Z,14.13
2022-08-07T13:46:49.366Z,11.80
2022-08-07T13:50:34.443Z,17.02
2022-08-07T13:52:26.476Z,10.82
2022-08-07T13:54:59.165Z,12.57
2022-08-07T13:57:32.215Z,15.00
2022-08-07T14:00:07.460Z,11.20
2022-08-07T14:02:49.349Z,11.13
2022-08-07T14:05:23.528Z,12.63
2022-08-07T14:08:00.417Z,11.90
2022-08-07T14:10:42.251Z,13.55
2022-08-07T14:13:16.668Z,9.60
2022-08-07T14:15:53.460Z,9.77
2022-08-07T14:18:30.620Z,9.52
2022-08-07T14:21:08.074Z,12.52
2022-08-07T14:24:00.162Z,9.40
2022-08-07T14:26:40.620Z,11.82
2022-08-07T14:30:08.023Z,8.98
2022-08-07T14:32:13.099Z,12.07
2022-08-07T14:34:46.030Z,10.90
2022-08-07T14:37:18.457Z,12.98
2022-08-07T14:40:15.804Z,12.68
2022-08-07T14:43:00.659Z,11.23
2022-08-07T14:48:20.383Z,11.57
2022-08-07T14:50:51.065Z,13.10
2022-08-07T14:56:13.172Z,9.77
2022-08-07T14:58:54.136Z,11.90
2022-08-07T15:01:27.600Z,11.98
2022-08-07T15:04:13.041Z,10.07
2022-08-07T15:09:58.492Z,11.07
2022-08-07T15:12:26.049Z,8.77
2022-08-07T15:15:07.580Z,37.58
2022-08-07T15:17:54.662Z,31.73
2022-08-07T15:23:22.226Z,10.85
2022-08-07T15:26:21.097Z,19.08
2022-08-07T15:29:00.971Z,10.70
2022-08-07T15:31:57.706Z,9.45
2022-08-07T15:34:26.903Z,10.27
2022-08-07T15:37:04.224Z,14.15
2022-08-07T15:39:56.927Z,13.27
2022-08-07T15:42:51.728Z,12.80
2022-08-07T15:48:29.948Z,12.40
2022-08-07T15:51:09.580Z,11.55
2022-08-07T15:53:53.024Z,11.27
2022-08-07T15:56:29.469Z,12.90
2022-08-07T15:59:05.847Z,13.53
2022-08-07T16:01:40.514Z,11.70
2022-08-07T16:04:14.716Z,19.35
2022-08-07T16:06:53.344Z,139.88
2022-08-07T16:09:41.083Z,62.42
2022-08-07T16:12:28.652Z,178.30
2022-08-07T16:15:54.541Z,180.60
2022-08-07T16:18:49.628Z,76.97
2022-08-07T16:21:57.092Z,336.85
2022-08-07T16:24:34.316Z,74.85
2022-08-07T16:27:18.118Z,40.03
2022-08-07T16:30:29.704Z,23.33
2022-08-07T16:34:06.775Z,22.00
2022-08-07T16:36:19.874Z,21.98
2022-08-07T16:39:33.532Z,14.30
2022-08-07T16:42:37.624Z,14.02
2022-08-07T16:46:20.978Z,14.75
2022-08-07T16:50:28.056Z,10.82
2022-08-07T16:52:41.694Z,12.50
2022-08-07T16:54:57.957Z,9.50
2022-08-07T16:58:01.844Z,14.88
2022-08-07T17:00:29.459Z,15.32
2022-08-07T17:03:17.384Z,14.90
2022-08-07T17:06:01.683Z,15.93
2022-08-07T17:09:10.620Z,11.90
2022-08-07T17:12:05.250Z,18.23
2022-08-07T17:17:19.033Z,27.98
2022-08-07T17:20:02.762Z,97.75
2022-08-07T17:22:37.826Z,115.53
2022-08-07T17:25:16.465Z,76.07
2022-08-07T17:27:59.202Z,130.35
2022-08-07T17:30:35.898Z,92.55
2022-08-07T17:34:09.067Z,90.35
2022-08-07T17:36:13.672Z,68.47
2022-08-07T17:38:55.345Z,37.80
2022-08-07T17:42:02.023Z,35.20
2022-08-07T17:44:33.782Z,33.47
2022-08-07T17:47:16.970Z,32.67
2022-08-07T17:50:16.445Z,44.58
2022-08-07T17:52:54.222Z,52.63
2022-08-07T17:56:00.203Z,76.38
2022-08-07T17:58:30.425Z,88.85
2022-08-07T18:01:02.803Z,202.77
2022-08-07T18:04:16.380Z,157.30
2022-08-07T18:07:19.197Z,73.07
2022-08-07T18:10:05.276Z,47.15
2022-08-07T18:12:48.192Z,39.83
2022-08-07T18:15:22.162Z,41.53
2022-08-07T18:18:45.834Z,47.13
2022-08-07T18:21:08.366Z,83.88
2022-08-07T18:23:58.875Z,92.88
2022-08-07T18:26:44.615Z,43.22
2022-08-07T18:30:08.388Z,41.10
2022-08-07T18:32:24.752Z,31.30
2022-08-07T18:35:15.649Z,26.52
2022-08-07T18:41:02.788Z,27.30
2022-08-07T18:43:57.809Z,28.63
2022-08-07T18:46:32.522Z,30.10
2022-08-07T18:50:30.571Z,31.02
2022-08-07T18:52:37.841Z,25.92
2022-08-07T18:55:40.307Z,30.25
2022-08-07T18:58:20.085Z,61.63
2022-08-07T19:01:01.069Z,45.80
2022-08-07T19:03:37.757Z,32.80
2022-08-07T19:06:16.237Z,42.78
2022-08-07T19:08:58.597Z,34.60
2022-08-07T19:12:04.281Z,34.45
2022-08-07T19:14:59.202Z,27.58
2022-08-07T19:18:01.593Z,26.38
2022-08-07T19:20:38.741Z,22.08
2022-08-07T19:23:58.395Z,15.98
2022-08-07T19:26:28.976Z,23.20
2022-08-07T19:31:03.821Z,17.60
2022-08-07T19:32:10.323Z,16.70
2022-08-07T19:34:47.943Z,14.82
2022-08-07T19:37:19.196Z,15.40
2022-08-07T19:40:01.971Z,12.68
2022-08-07T19:42:39.916Z,16.07
2022-08-07T19:46:05.128Z,17.92
2022-08-07T19:48:04.096Z,16.50
2022-08-07T19:50:53.156Z,15.23
2022-08-07T19:54:31.809Z,18.52
2022-08-07T19:57:56.770Z,14.43
2022-08-07T19:59:01.571Z,15.35
2022-08-07T20:01:57.004Z,15.68
2022-08-07T20:04:31.127Z,15.52
2022-08-07T20:07:01.703Z,19.98
2022-08-07T20:10:33.592Z,17.83
2022-08-07T20:12:34.858Z,23.50
2022-08-07T20:15:15.504Z,17.17
2022-08-07T20:18:01.777Z,20.00
2022-08-07T20:20:33.950Z,20.08
2022-08-07T20:23:22.996Z,18.48
2022-08-07T20:25:55.581Z,17.88
2022-08-07T20:28:29.215Z,18.55
2022-08-07T20:30:59.162Z,20.13
2022-08-07T20:33:37.533Z,17.80
2022-08-07T20:36:09.830Z,19.27
2022-08-07T20:38:53.629Z,14.90
2022-08-07T20:41:33.972Z,19.05
2022-08-07T20:44:12.851Z,17.15
2022-08-07T20:46:42.796Z,17.98
2022-08-07T20:49:58.930Z,16.55
2022-08-07T20:52:14.295Z,22.38
2022-08-07T20:54:53.912Z,20.02
2022-08-07T20:57:25.400Z,18.75
2022-08-07T21:00:06.637Z,18.83
2022-08-07T21:02:55.161Z,17.20
2022-08-07T21:05:52.915Z,18.73
2022-08-07T21:08:36.743Z,17.95
2022-08-07T21:11:10.706Z,19.88
2022-08-07T21:14:29.505Z,18.85
2022-08-07T21:16:46.675Z,21.30
2022-08-07T21:19:32.145Z,20.88
2022-08-07T21:22:16.699Z,19.98
2022-08-07T21:25:12.178Z,21.55
2022-08-07T21:28:02.019Z,21.10
2022-08-07T21:30:42.167Z,23.33
2022-08-07T21:33:16.703Z,20.75
2022-08-07T21:36:06.754Z,20.90
2022-08-07T21:38:50.099Z,25.27
2022-08-07T21:41:26.921Z,24.20
2022-08-07T21:44:14.613Z,20.50
2022-08-07T21:47:01.483Z,19.85
2022-08-07T21:50:00.615Z,26.20
2022-08-07T21:52:34.257Z,22.65
2022-08-07T21:55:11.868Z,23.45
2022-08-07T21:57:53.647Z,22.00
2022-08-07T22:00:25.148Z,25.73
2022-08-07T22:03:00.602Z,26.50
2022-08-07T22:05:45.748Z,22.08
2022-08-07T22:08:19.702Z,21.48
2022-08-07T22:10:51.094Z,23.83
2022-08-07T22:13:24.657Z,21.92
2022-08-07T22:16:42.455Z,22.52
2022-08-07T22:19:08.044Z,24.08
2022-08-07T22:22:04.662Z,24.20
2022-08-07T22:24:34.495Z,26.52
2022-08-07T22:27:06.952Z,21.40
2022-08-07T22:29:48.372Z,22.45
2022-08-07T22:32:26.490Z,20.70
2022-08-07T22:34:56.250Z,22.08
2022-08-07T22:38:04.523Z,35.30
2022-08-07T22:40:29.737Z,22.98
2022-08-07T22:43:02.244Z,24.80
2022-08-07T22:46:21.556Z,25.20
2022-08-07T22:49:09.432Z,22.60
2022-08-07T22:51:54.251Z,22.45
2022-08-07T22:54:48.746Z,22.05
2022-08-07T22:57:40.935Z,20.60
2022-08-07T23:00:14.899Z,23.35
2022-08-07T23:03:12.251Z,24.42
2022-08-07T23:06:09.778Z,21.13
2022-08-07T23:08:53.059Z,23.80
2022-08-07T23:11:41.299Z,22.38
2022-08-07T23:14:33.040Z,22.58
2022-08-07T23:17:19.880Z,23.05
2022-08-07T23:20:03.292Z,19.85
2022-08-07T23:22:46.418Z,24.52
2022-08-07T23:25:32.512Z,20.20
2022-08-07T23:28:21.548Z,24.63
2022-08-07T23:31:13.697Z,25.80
2022-08-07T23:34:33.967Z,22.23
2022-08-07T23:37:19.052Z,22.95
2022-08-07T23:40:06.052Z,21.05
2022-08-07T23:42:54.527Z,20.98
2022-08-07T23:45:33.391Z,22.85
2022-08-07T23:48:58.716Z,22.70
2022-08-07T23:53:00.427Z,25.00
2022-08-07T23:54:44.297Z,26.60
2022-08-07T23:57:23.796Z,23.17
